Gillett Grove, Iowa
Current Conditions -  °F | °C
As of 5:53 AM on Monday 22 Dec 2014 (Local Time) from KSPW Reporting Station
Light Rain Light Rain  
Wind Chill: 32°   Ceiling: 200
Heat Index: 40°   Visibility: 3mi
Dew Point: 38°   Wind: 14mph
Humidity: 93%   Direction: 150°SSE
Pressure: 29.55"   Gusts: NA
Location:  43.02°N, 95.04°W
Report Text: KSPW 221153Z AUTO 15012KT 3SM -RA BR OVC002 04/03 A2955 RMK AO2 RAB1056 SLP015 P0001 60001 70001 T00440033 10044 20044 56006 TSNO
Loading
Personal Weather Stations






























Interactive Weather Map New forecast layout! Learn more

10-Day Weather Forecast

Advertisements
Track Severe Weather on mobile